createdAt,value
2023-04-14T00:04:51.981Z,40.33
2023-04-14T00:09:53.978Z,42.16
2023-04-14T00:14:55.733Z,41.33
2023-04-14T00:19:57.572Z,41.09
2023-04-14T00:24:59.415Z,40.80
2023-04-14T00:30:01.201Z,42.24
2023-04-14T00:35:03.709Z,41.89
2023-04-14T00:40:09.110Z,42.00
2023-04-14T00:45:12.250Z,42.25
2023-04-14T00:50:15.294Z,41.94
2023-04-14T00:55:19.966Z,41.71
2023-04-14T01:00:21.896Z,40.90
2023-04-14T01:05:23.676Z,41.41
2023-04-14T01:10:34.256Z,40.87
2023-04-14T01:15:43.880Z,40.79
2023-04-14T01:20:51.671Z,41.36
2023-04-14T01:26:18.628Z,40.73
2023-04-14T01:31:27.040Z,41.95
2023-04-14T01:36:44.747Z,41.63
2023-04-14T01:41:52.608Z,41.21
2023-04-14T01:47:00.307Z,40.60
2023-04-14T01:52:06.025Z,41.19
2023-04-14T01:57:11.273Z,41.58
2023-04-14T02:02:17.494Z,41.07
2023-04-14T02:07:22.052Z,41.76
2023-04-14T02:12:26.477Z,40.98
2023-04-14T02:17:30.097Z,40.82
2023-04-14T02:22:32.066Z,40.42
2023-04-14T02:27:46.814Z,41.66
2023-04-14T02:32:56.817Z,39.93
2023-04-14T02:38:08.338Z,40.24
2023-04-14T02:43:30.919Z,39.82
2023-04-14T02:48:36.095Z,40.88
2023-04-14T02:53:38.735Z,41.57
2023-04-14T02:58:51.029Z,41.19
2023-04-14T03:03:56.557Z,41.80
2023-04-14T03:09:00.529Z,40.50
2023-04-14T03:14:04.216Z,40.10
2023-04-14T03:19:08.080Z,40.00
2023-04-14T03:24:16.235Z,40.12
2023-04-14T03:29:20.991Z,41.26
2023-04-14T03:34:25.757Z,40.23
2023-04-14T03:39:32.863Z,41.13
2023-04-14T03:44:37.818Z,40.98
2023-04-14T03:49:43.319Z,40.99
2023-04-14T03:54:48.009Z,42.21
2023-04-14T03:59:52.129Z,41.90
2023-04-14T04:04:59.413Z,41.94
2023-04-14T04:10:04.963Z,42.20
2023-04-14T04:15:08.373Z,42.32
2023-04-14T04:20:14.238Z,42.48
2023-04-14T04:25:18.533Z,41.31
2023-04-14T04:30:31.123Z,40.06
2023-04-14T04:35:35.754Z,39.88
2023-04-14T04:40:40.415Z,39.44
2023-04-14T04:45:59.102Z,39.99
2023-04-14T04:51:02.857Z,39.92
2023-04-14T04:56:04.970Z,39.51
2023-04-14T05:01:11.120Z,39.19
2023-04-14T05:06:13.350Z,40.00
2023-04-14T05:11:15.174Z,39.73
2023-04-14T05:16:17.391Z,40.37
2023-04-14T05:21:19.729Z,40.60
2023-04-14T05:26:44.443Z,40.33
2023-04-14T05:31:44.537Z,42.03
2023-04-14T05:36:46.637Z,41.01
2023-04-14T05:41:48.449Z,41.48
2023-04-14T05:46:50.358Z,42.51
2023-04-14T05:51:55.007Z,42.47
2023-04-14T05:56:57.641Z,42.26
2023-04-14T06:01:59.922Z,41.57
2023-04-14T06:07:03.078Z,42.66
2023-04-14T06:12:05.014Z,41.94
2023-04-14T06:17:07.012Z,42.13
2023-04-14T06:22:08.993Z,41.84
2023-04-14T06:27:10.828Z,42.34
2023-04-14T06:32:12.756Z,41.47
2023-04-14T06:37:16.366Z,42.97
2023-04-14T06:42:18.270Z,43.00
2023-04-14T06:47:23.266Z,42.55
2023-04-14T06:52:25.244Z,42.34
2023-04-14T06:57:27.814Z,43.86
2023-04-14T07:02:29.882Z,43.63
2023-04-14T07:07:40.233Z,42.77
2023-04-14T07:12:42.143Z,41.40
2023-04-14T07:17:44.202Z,41.20
2023-04-14T07:22:46.501Z,41.50
2023-04-14T07:28:00.277Z,40.62
2023-04-14T07:33:05.660Z,40.24
2023-04-14T07:38:08.056Z,41.62
2023-04-14T07:43:09.971Z,42.78
2023-04-14T07:48:11.886Z,42.57
2023-04-14T07:53:13.785Z,42.82
2023-04-14T07:58:16.291Z,41.24
2023-04-14T08:03:20.003Z,42.56
2023-04-14T08:08:22.021Z,48.08
2023-04-14T08:13:23.829Z,45.87
2023-04-14T08:18:26.931Z,43.92
2023-04-14T08:23:28.786Z,50.65
2023-04-14T08:28:30.854Z,53.59
2023-04-14T08:33:33.958Z,47.37
2023-04-14T08:38:35.785Z,49.14
2023-04-14T08:43:38.227Z,46.21
2023-04-14T08:48:41.175Z,45.93
2023-04-14T08:53:45.306Z,42.45
2023-04-14T08:58:48.116Z,51.91
2023-04-14T09:03:51.310Z,51.99
2023-04-14T09:08:53.895Z,46.94
2023-04-14T09:13:58.582Z,49.09
2023-04-14T09:19:06.771Z,48.61
2023-04-14T09:24:12.032Z,38.85
2023-04-14T09:29:14.131Z,39.66
2023-04-14T09:34:20.901Z,36.27
2023-04-14T09:39:22.704Z,36.01
2023-04-14T09:44:24.600Z,34.68
2023-04-14T09:49:28.001Z,32.99
2023-04-14T09:54:30.377Z,42.48
2023-04-14T09:59:34.400Z,37.39
2023-04-14T10:04:38.162Z,35.37
2023-04-14T10:09:40.907Z,32.26
2023-04-14T10:14:44.360Z,33.94
2023-04-14T10:19:46.738Z,30.07
2023-04-14T10:24:49.841Z,31.61
2023-04-14T10:29:51.761Z,34.75
2023-04-14T10:35:07.092Z,29.83
2023-04-14T10:40:09.461Z,38.17
2023-04-14T10:45:12.827Z,39.17
2023-04-14T10:50:19.725Z,41.26
2023-04-14T10:55:26.260Z,42.00
2023-04-14T11:00:31.790Z,41.36
2023-04-14T11:05:47.965Z,39.53
2023-04-14T11:10:51.409Z,40.74
2023-04-14T11:16:08.473Z,41.00
2023-04-14T11:21:15.662Z,40.02
2023-04-14T11:26:17.778Z,40.43
2023-04-14T11:31:21.799Z,38.13
2023-04-14T11:36:25.234Z,37.65
2023-04-14T11:41:27.205Z,34.93
2023-04-14T11:46:29.139Z,34.26
2023-04-14T11:51:32.476Z,34.64
2023-04-14T11:56:34.890Z,33.02
2023-04-14T12:01:36.654Z,36.40
2023-04-14T12:06:39.175Z,32.23
2023-04-14T12:11:41.193Z,29.85
2023-04-14T12:16:43.111Z,35.96
2023-04-14T12:21:53.188Z,37.07
2023-04-14T12:26:56.018Z,36.16
2023-04-14T12:31:58.005Z,31.16
2023-04-14T12:36:59.913Z,35.80
2023-04-14T12:42:01.822Z,37.01
2023-04-14T12:47:03.653Z,31.53
2023-04-14T12:52:08.069Z,31.65
2023-04-14T12:57:10.061Z,30.45
2023-04-14T13:02:12.898Z,30.15
2023-04-14T13:07:15.018Z,31.15
2023-04-14T13:12:16.935Z,28.60
2023-04-14T13:17:18.793Z,30.99
2023-04-14T13:22:21.030Z,32.14
2023-04-14T13:27:22.833Z,32.16
2023-04-14T13:32:24.633Z,33.37
2023-04-14T13:37:26.469Z,32.32
2023-04-14T13:42:28.436Z,29.18
2023-04-14T13:47:30.316Z,31.60
2023-04-14T13:52:32.252Z,33.20
2023-04-14T13:57:34.077Z,31.67
2023-04-14T14:02:39.557Z,28.41
2023-04-14T14:07:41.500Z,30.57
2023-04-14T14:12:43.310Z,30.94
2023-04-14T14:17:45.166Z,35.60
2023-04-14T14:22:47.314Z,33.05
2023-04-14T14:27:51.957Z,36.42
2023-04-14T14:32:53.940Z,37.07
2023-04-14T14:37:56.129Z,34.39
2023-04-14T14:42:58.076Z,35.35
2023-04-14T14:48:00.025Z,37.00
2023-04-14T14:53:01.870Z,38.97
2023-04-14T14:58:04.004Z,34.03
2023-04-14T15:03:06.357Z,36.45
2023-04-14T15:08:08.621Z,37.11
2023-04-14T15:13:10.600Z,38.10
2023-04-14T15:18:12.603Z,38.41
2023-04-14T15:23:14.589Z,38.92
2023-04-14T15:28:16.783Z,38.89
2023-04-14T15:33:18.572Z,36.09
2023-04-14T15:38:20.368Z,38.56
2023-04-14T15:43:22.141Z,37.94
2023-04-14T15:48:23.894Z,36.03
2023-04-14T15:53:25.652Z,34.07
2023-04-14T15:58:27.485Z,38.92
2023-04-14T16:03:29.384Z,37.71
2023-04-14T16:08:32.122Z,39.83
2023-04-14T16:13:33.801Z,40.77
2023-04-14T16:18:36.755Z,39.56
2023-04-14T16:23:38.604Z,42.15
2023-04-14T16:28:40.426Z,43.10
2023-04-14T16:33:42.166Z,41.48
2023-04-14T16:38:43.942Z,37.49
2023-04-14T16:43:45.798Z,33.91
2023-04-14T16:48:47.509Z,32.53
2023-04-14T16:53:49.478Z,35.40
2023-04-14T16:58:51.274Z,35.26
2023-04-14T17:03:53.236Z,32.36
2023-04-14T17:08:55.159Z,31.19
2023-04-14T17:13:56.890Z,36.79
2023-04-14T17:18:58.833Z,41.92
2023-04-14T17:24:01.288Z,42.52
2023-04-14T17:29:03.528Z,42.76
2023-04-14T17:34:10.726Z,44.36
2023-04-14T17:39:12.622Z,42.61
2023-04-14T17:44:14.512Z,38.73
2023-04-14T17:49:16.615Z,40.94
2023-04-14T17:54:18.418Z,43.59
2023-04-14T17:59:20.660Z,43.10
2023-04-14T18:04:22.595Z,40.44
2023-04-14T18:09:24.490Z,41.04
2023-04-14T18:14:26.578Z,42.47
2023-04-14T18:19:28.387Z,41.35
2023-04-14T18:29:36.050Z,43.47
2023-04-14T18:34:37.833Z,42.84
2023-04-14T18:39:40.079Z,44.98
2023-04-14T18:44:42.053Z,43.13
2023-04-14T18:49:43.803Z,42.31
2023-04-14T18:54:45.659Z,45.42
2023-04-14T18:59:47.741Z,43.62
2023-04-14T19:04:49.676Z,46.02
2023-04-14T19:09:51.771Z,43.56
2023-04-14T19:14:53.912Z,42.32
2023-04-14T19:19:55.971Z,42.20
2023-04-14T19:24:57.896Z,42.60
2023-04-14T19:29:59.622Z,38.65
2023-04-14T19:35:02.644Z,43.05
2023-04-14T19:40:06.446Z,41.65
2023-04-14T19:45:10.217Z,39.93
2023-04-14T19:50:12.479Z,40.72
2023-04-14T19:55:14.359Z,43.99
2023-04-14T20:00:16.913Z,41.12
2023-04-14T20:05:18.796Z,43.27
2023-04-14T20:10:20.501Z,40.64
2023-04-14T20:15:22.358Z,40.15
2023-04-14T20:20:24.183Z,38.15
2023-04-14T20:25:26.138Z,39.31
2023-04-14T20:30:29.405Z,40.82
2023-04-14T20:35:35.628Z,42.09
2023-04-14T20:40:37.894Z,40.20
2023-04-14T20:45:40.211Z,38.10
2023-04-14T20:50:44.355Z,37.05
2023-04-14T20:55:46.267Z,39.10
2023-04-14T21:00:48.095Z,44.20
2023-04-14T21:05:50.055Z,45.49
2023-04-14T21:11:15.802Z,39.45
2023-04-14T21:16:14.683Z,39.54
2023-04-14T21:21:16.811Z,39.53
2023-04-14T21:26:18.861Z,39.49
2023-04-14T21:31:20.673Z,37.36
2023-04-14T21:36:22.963Z,38.41
2023-04-14T21:41:25.189Z,39.11
2023-04-14T21:46:27.256Z,36.15
2023-04-14T21:51:28.981Z,35.35
2023-04-14T21:56:30.776Z,35.58
2023-04-14T22:01:33.121Z,36.35
2023-04-14T22:06:38.155Z,42.10
2023-04-14T22:11:39.985Z,40.84
2023-04-14T22:16:42.845Z,39.05
2023-04-14T22:21:44.755Z,38.42
2023-04-14T22:26:47.107Z,41.14
2023-04-14T22:31:48.826Z,47.16
2023-04-14T22:36:50.589Z,51.00
2023-04-14T22:41:52.379Z,47.52
2023-04-14T22:46:54.176Z,47.56
2023-04-14T22:51:56.452Z,44.75
2023-04-14T22:56:58.325Z,45.21
2023-04-14T23:02:00.220Z,43.03
2023-04-14T23:07:02.383Z,40.91
2023-04-14T23:12:04.572Z,40.64
2023-04-14T23:17:06.758Z,40.41
2023-04-14T23:22:08.545Z,40.69
2023-04-14T23:27:10.580Z,39.93
2023-04-14T23:32:13.144Z,39.99
2023-04-14T23:37:14.995Z,40.00
2023-04-14T23:42:16.867Z,41.05
2023-04-14T23:47:19.207Z,41.68
2023-04-14T23:52:21.819Z,40.91
2023-04-14T23:57:24.664Z,40.45
